Time;durP1;ratioP1;P1;durP2;ratioP2;P2;SDS_P1;SDS_P2;PMS_P1;PMS_P2;Temp;Humidity;BMP_temperature;BMP_pressure;BME280_temperature;BME280_humidity;BME280_pressure;Samples;Min_cycle;Max_cycle;Signal;HPM_P1;HPM_P2
2022/01/20 00:00:21;;;;;;;28.40;16.98;;;;;;;4.69;55.82;99409.91;5065267;28;20097;-74
2022/01/20 00:02:56;;;;;;;29.80;16.42;;;;;;;4.74;55.90;99405.22;5064203;28;20624;-74
2022/01/20 00:05:34;;;;;;;31.13;18.17;;;;;;;4.72;55.76;99405.31;5063738;28;20056;-73
2022/01/20 00:08:16;;;;;;;31.15;15.50;;;;;;;4.73;55.70;99409.59;5064945;28;20049;-73
2022/01/20 00:27:16;;;;;;;36.40;17.40;;;;;;;4.79;55.15;99354.28;5033922;28;20118;-79
2022/01/20 00:32:48;;;;;;;30.73;15.98;;;;;;;4.83;55.29;99336.63;4986991;28;20221;-73
2022/01/20 00:35:22;;;;;;;29.70;19.77;;;;;;;4.82;55.24;99334.09;4955058;28;20152;-75
2022/01/20 00:37:49;;;;;;;32.22;17.92;;;;;;;4.84;55.07;99330.44;4988787;28;20165;-73
2022/01/20 00:40:19;;;;;;;27.27;16.90;;;;;;;4.84;55.21;99322.59;4988802;28;20078;-76
2022/01/20 00:42:46;;;;;;;28.73;16.30;;;;;;;4.82;55.20;99313.16;4986924;28;20042;-72
2022/01/20 00:45:14;;;;;;;29.80;16.63;;;;;;;4.84;55.30;99313.91;4988205;28;20739;-72
2022/01/20 00:47:43;;;;;;;32.67;17.42;;;;;;;4.84;55.30;99316.53;4988384;28;20054;-78
2022/01/20 00:50:12;;;;;;;35.60;19.55;;;;;;;4.84;55.14;99322.59;4990571;28;20050;-74
2022/01/20 00:52:39;;;;;;;39.47;16.55;;;;;;;4.86;55.13;99322.50;4984626;28;20098;-75
2022/01/20 00:55:08;;;;;;;33.58;19.70;;;;;;;4.86;54.93;99314.66;4938047;28;20503;-74
2022/01/20 00:57:35;;;;;;;32.28;19.85;;;;;;;4.85;55.13;99305.13;4985415;28;20050;-78
2022/01/20 01:00:02;;;;;;;31.20;18.45;;;;;;;4.81;55.00;99303.63;4987162;28;20046;-77
2022/01/20 01:02:29;;;;;;;23.30;13.93;;;;;;;4.79;55.18;99303.75;4988485;28;20468;-79
2022/01/20 01:04:57;;;;;;;32.92;18.05;;;;;;;4.76;55.18;99296.09;4985468;28;20522;-72
2022/01/20 01:07:44;;;;;;;34.15;17.80;;;;;;;4.78;55.21;99302.91;4989387;28;20209;-70
2022/01/20 01:10:12;;;;;;;32.65;17.63;;;;;;;4.82;55.09;99297.47;5049045;28;20049;-79
2022/01/20 01:12:46;;;;;;;32.00;18.27;;;;;;;4.79;55.19;99280.22;5050220;28;20055;-73
2022/01/20 01:15:18;;;;;;;30.52;18.23;;;;;;;4.82;55.06;99281.78;5047836;28;20045;-76
2022/01/20 01:20:44;;;;;;;31.35;16.55;;;;;;;4.83;55.10;99273.84;5049919;28;20064;-76
2022/01/20 01:23:11;;;;;;;28.90;14.68;;;;;;;4.83;55.16;99273.00;5048833;28;20608;-72
2022/01/20 01:25:38;;;;;;;32.33;17.65;;;;;;;4.81;55.23;99269.63;5044659;28;20051;-72
2022/01/20 01:28:05;;;;;;;41.40;17.90;;;;;;;4.79;55.42;99261.91;5047638;28;20128;-79
2022/01/20 01:31:06;;;;;;;31.25;16.52;;;;;;;4.82;55.45;99256.44;5049596;28;20049;-79
2022/01/20 01:33:36;;;;;;;28.52;17.83;;;;;;;4.85;55.33;99244.97;5029838;28;20576;-78
2022/01/20 01:36:07;;;;;;;27.67;14.60;;;;;;;4.84;55.56;99243.28;5046908;28;20056;-78
2022/01/20 01:38:38;;;;;;;27.85;14.52;;;;;;;4.82;55.45;99248.59;4994510;28;20107;-72
2022/01/20 01:41:09;;;;;;;28.92;18.15;;;;;;;4.81;55.80;99235.59;5046567;28;20482;-73
2022/01/20 01:43:37;;;;;;;20.23;13.43;;;;;;;4.81;55.67;99233.00;5048774;28;20045;-75
2022/01/20 01:46:04;;;;;;;25.35;15.52;;;;;;;4.84;55.75;99227.56;5053429;28;20524;-73
2022/01/20 01:48:31;;;;;;;20.60;13.05;;;;;;;4.85;55.75;99208.34;5067658;28;20055;-76
2022/01/20 01:51:00;;;;;;;25.58;14.52;;;;;;;4.87;55.69;99206.44;5067354;28;20040;-71
2022/01/20 01:53:29;;;;;;;27.17;18.23;;;;;;;4.87;55.86;99215.13;5067078;28;20447;-78
2022/01/20 01:55:57;;;;;;;28.08;16.85;;;;;;;4.88;55.83;99195.88;5065998;28;20104;-72
2022/01/20 01:58:24;;;;;;;27.77;17.98;;;;;;;4.90;55.81;99203.63;5066258;28;20052;-75
2022/01/20 02:00:51;;;;;;;21.40;13.55;;;;;;;4.90;55.86;99212.31;5065712;28;20040;-72
2022/01/20 02:03:18;;;;;;;33.75;18.83;;;;;;;4.86;56.07;99194.28;5066617;28;20048;-74
2022/01/20 02:06:04;;;;;;;28.65;18.15;;;;;;;4.85;56.20;99184.78;5065793;28;20040;-74
2022/01/20 02:08:39;;;;;;;26.65;18.80;;;;;;;4.84;56.47;99181.31;5065252;28;20067;-72
2022/01/20 02:19:23;;;;;;;22.58;14.02;;;;;;;4.74;57.19;99149.69;5066186;28;20524;-76
2022/01/20 02:21:54;;;;;;;24.02;15.45;;;;;;;4.73;57.29;99148.00;5066143;28;20140;-73
2022/01/20 02:24:21;;;;;;;21.40;13.45;;;;;;;4.71;57.52;99149.06;5065784;28;20358;-77
2022/01/20 02:26:48;;;;;;;32.00;18.30;;;;;;;4.65;57.79;99125.94;5063880;28;20687;-71
2022/01/20 02:29:16;;;;;;;29.45;20.25;;;;;;;4.60;58.12;99128.84;5066981;28;20135;-73
2022/01/20 02:31:43;;;;;;;25.83;17.73;;;;;;;4.59;58.13;99125.41;5066546;28;20048;-71
2022/01/20 02:34:12;;;;;;;32.72;19.58;;;;;;;4.54;58.67;99132.72;5066559;28;20573;-71
2022/01/20 02:36:41;;;;;;;28.00;18.27;;;;;;;4.50;58.71;99119.91;5065880;28;20063;-76
2022/01/20 02:39:24;;;;;;;25.65;16.60;;;;;;;4.45;58.88;99115.00;5067295;28;20440;-72
2022/01/20 02:44:53;;;;;;;32.20;20.27;;;;;;;4.26;59.77;99110.13;5066932;28;20519;-76
2022/01/20 02:47:21;;;;;;;31.35;19.73;;;;;;;4.22;59.96;99111.28;5065934;28;20044;-70
2022/01/20 02:49:49;;;;;;;21.95;14.90;;;;;;;4.21;60.28;99104.34;5065984;28;20045;-75
2022/01/20 02:52:16;;;;;;;27.30;18.48;;;;;;;4.18;60.75;99094.13;5065473;28;20068;-71
2022/01/20 02:54:45;;;;;;;30.35;19.27;;;;;;;4.17;61.11;99102.88;5065695;28;20040;-71
2022/01/20 02:57:12;;;;;;;27.33;16.77;;;;;;;4.18;61.17;99091.50;5064109;28;20053;-72
2022/01/20 02:59:40;;;;;;;30.40;18.00;;;;;;;4.16;61.22;99094.22;5065125;28;20485;-75
2022/01/20 03:02:09;;;;;;;28.65;19.10;;;;;;;4.16;61.24;99086.38;5066233;28;20071;-71
2022/01/20 03:04:37;;;;;;;27.17;17.60;;;;;;;4.16;61.26;99090.75;5066395;28;20718;-73
2022/01/20 03:07:04;;;;;;;34.47;23.35;;;;;;;4.13;61.71;99085.75;5066894;28;20587;-76
2022/01/20 03:09:32;;;;;;;29.35;16.77;;;;;;;4.13;61.92;99083.94;5066190;28;20051;-72
2022/01/20 03:12:00;;;;;;;24.40;15.80;;;;;;;4.13;61.83;99078.72;5066879;28;20514;-72
2022/01/20 03:14:27;;;;;;;25.00;13.52;;;;;;;4.11;61.96;99079.78;5068328;28;20358;-71
2022/01/20 03:16:55;;;;;;;26.25;17.02;;;;;;;4.08;62.39;99079.97;5066370;28;20514;-74
2022/01/20 03:19:23;;;;;;;26.20;16.30;;;;;;;4.09;62.27;99052.88;5067312;28;20041;-75
2022/01/20 03:21:50;;;;;;;29.58;22.65;;;;;;;4.04;62.34;99060.19;5068324;28;20141;-70
2022/01/20 03:24:17;;;;;;;25.30;16.08;;;;;;;4.01;62.71;99071.69;5069227;28;20045;-73
2022/01/20 03:26:44;;;;;;;29.15;17.25;;;;;;;4.02;62.60;99061.13;5069518;28;20045;-73
2022/01/20 03:29:12;;;;;;;27.38;15.70;;;;;;;4.01;62.71;99054.22;5079117;28;20136;-74
2022/01/20 03:31:40;;;;;;;21.95;13.45;;;;;;;4.01;62.64;99064.66;5082125;28;20060;-72
2022/01/20 03:34:07;;;;;;;22.67;15.07;;;;;;;3.97;62.81;99055.34;5082955;28;20056;-72
2022/01/20 03:36:35;;;;;;;27.80;14.30;;;;;;;3.98;62.74;99056.19;5082134;28;20100;-72
2022/01/20 03:39:02;;;;;;;24.15;15.52;;;;;;;3.99;63.07;99063.09;5080502;28;20104;-72
2022/01/20 03:41:29;;;;;;;24.60;14.90;;;;;;;4.00;62.89;99060.41;5078303;28;20048;-72
2022/01/20 03:43:56;;;;;;;25.88;16.95;;;;;;;4.00;63.08;99064.78;5079139;28;20080;-74
2022/01/20 03:46:25;;;;;;;28.50;18.23;;;;;;;4.01;63.14;99059.44;5086761;28;20184;-72
2022/01/20 03:48:54;;;;;;;25.27;17.67;;;;;;;4.02;63.21;99061.13;5089783;28;20072;-74
2022/01/20 03:51:23;;;;;;;25.80;19.42;;;;;;;4.02;63.23;99053.28;5089835;28;20097;-73
2022/01/20 03:53:52;;;;;;;21.85;14.23;;;;;;;4.08;63.11;99056.44;5089603;28;20167;-75
2022/01/20 03:56:20;;;;;;;23.75;12.80;;;;;;;4.11;63.03;99051.84;5083709;28;20318;-73
2022/01/20 03:58:48;;;;;;;28.17;17.10;;;;;;;4.12;63.36;99063.97;5084203;28;20067;-75
2022/01/20 04:01:15;;;;;;;23.02;12.20;;;;;;;4.18;63.46;99047.91;5088215;28;20092;-73
2022/01/20 04:03:44;;;;;;;25.55;14.77;;;;;;;4.20;63.50;99053.03;5085422;28;20059;-76
2022/01/20 04:06:12;;;;;;;29.13;16.85;;;;;;;4.24;63.61;99030.97;5073147;28;20132;-75
2022/01/20 04:08:40;;;;;;;39.17;20.50;;;;;;;4.26;63.71;99031.72;5019004;28;20076;-78
2022/01/20 04:11:12;;;;;;;24.98;14.35;;;;;;;4.33;63.52;99034.78;5073735;28;20122;-72
2022/01/20 04:13:39;;;;;;;28.08;17.40;;;;;;;4.34;63.61;99036.44;5072845;28;20055;-72
2022/01/20 04:16:13;;;;;;;24.65;18.05;;;;;;;4.32;63.74;99026.09;5073657;28;20047;-77
2022/01/20 04:18:41;;;;;;;25.67;15.48;;;;;;;4.34;63.89;99036.44;5072016;28;20131;-70
2022/01/20 04:21:10;;;;;;;27.90;17.02;;;;;;;4.40;63.67;99047.31;5072184;28;20075;-77
2022/01/20 04:23:37;;;;;;;26.73;19.77;;;;;;;4.41;63.60;99027.25;5070809;28;20052;-77
2022/01/20 04:26:04;;;;;;;26.40;16.42;;;;;;;4.43;63.70;99019.28;5065877;28;20472;-74
2022/01/20 04:28:31;;;;;;;22.15;12.45;;;;;;;4.47;63.57;99031.25;5067750;28;20129;-76
2022/01/20 04:30:58;;;;;;;23.00;13.95;;;;;;;4.47;63.70;99029.47;5068838;28;20049;-73
2022/01/20 04:33:25;;;;;;;30.23;20.27;;;;;;;4.54;63.54;99027.28;5068156;28;20186;-75
2022/01/20 04:35:52;;;;;;;26.20;19.45;;;;;;;4.51;63.73;99017.03;5067430;28;20041;-75
2022/01/20 04:38:20;;;;;;;29.85;18.10;;;;;;;4.54;63.74;99022.88;5067425;28;20048;-74
2022/01/20 04:40:47;;;;;;;20.25;12.75;;;;;;;4.57;63.59;99032.28;5067304;28;20041;-75
2022/01/20 04:43:14;;;;;;;26.70;15.02;;;;;;;4.60;63.71;99021.63;5067785;28;20091;-77
2022/01/20 04:45:47;;;;;;;29.10;17.02;;;;;;;4.62;63.62;99026.75;5049765;28;20463;-74
2022/01/20 04:48:30;;;;;;;27.55;15.50;;;;;;;4.68;63.41;99021.09;5068045;28;20044;-74
2022/01/20 04:59:12;;;;;;;21.70;14.35;;;;;;;4.72;63.43;99010.34;5068804;28;20047;-75
2022/01/20 05:01:44;;;;;;;21.88;14.68;;;;;;;4.74;63.30;99013.69;5066735;28;20058;-72
2022/01/20 05:04:13;;;;;;;19.55;12.23;;;;;;;4.77;63.11;99010.00;5067384;28;20052;-75
2022/01/20 05:06:43;;;;;;;20.55;13.35;;;;;;;4.76;63.37;99000.50;5066916;28;20087;-75
2022/01/20 05:09:17;;;;;;;17.90;11.77;;;;;;;4.77;63.24;98996.94;5066647;28;20055;-72
2022/01/20 05:11:48;;;;;;;16.52;10.57;;;;;;;4.79;63.04;98989.84;5067257;28;20128;-77
2022/01/20 05:14:15;;;;;;;20.80;9.25;;;;;;;4.79;62.86;98995.91;5048702;28;20086;-76
2022/01/20 05:16:42;;;;;;;17.80;12.52;;;;;;;4.79;63.06;98995.06;5046664;28;20048;-73
2022/01/20 05:19:09;;;;;;;15.27;9.98;;;;;;;4.82;62.93;98988.78;5046457;28;20053;-74
2022/01/20 05:21:36;;;;;;;16.48;7.55;;;;;;;4.82;62.97;98999.25;5046134;28;20049;-70
2022/01/20 05:24:04;;;;;;;17.20;12.23;;;;;;;4.81;62.94;99000.16;5047007;28;20045;-76
2022/01/20 05:26:33;;;;;;;15.95;10.30;;;;;;;4.83;62.92;99000.94;5044580;28;20048;-75
2022/01/20 05:29:00;;;;;;;13.77;9.40;;;;;;;4.86;62.53;99005.91;5046890;28;20055;-74
2022/01/20 05:31:27;;;;;;;11.88;7.93;;;;;;;4.91;62.46;99004.66;5047028;28;20063;-75
2022/01/20 05:33:55;;;;;;;14.13;8.35;;;;;;;4.95;62.30;99000.91;5049043;28;20611;-80
2022/01/20 05:36:22;;;;;;;13.27;9.45;;;;;;;4.97;62.24;98990.34;5047142;28;20128;-76
2022/01/20 05:38:50;;;;;;;17.05;9.60;;;;;;;4.99;62.09;98985.84;5047640;28;20049;-79
2022/01/20 05:41:18;;;;;;;19.50;10.45;;;;;;;4.95;61.74;98994.81;5049695;28;20063;-76
2022/01/20 05:43:47;;;;;;;10.93;7.85;;;;;;;5.02;61.80;99000.47;5047469;28;20585;-76
2022/01/20 05:46:16;;;;;;;17.85;12.20;;;;;;;5.00;61.48;98990.09;5049591;28;20465;-81
2022/01/20 05:48:47;;;;;;;12.30;7.70;;;;;;;5.01;61.07;98994.41;5048755;28;20113;-81
2022/01/20 05:51:15;;;;;;;13.30;8.80;;;;;;;4.96;60.44;98983.41;5048599;28;20056;-83
2022/01/20 05:53:44;;;;;;;13.63;8.13;;;;;;;4.94;60.30;98985.31;5049398;28;20059;-78
2022/01/20 05:56:11;;;;;;;11.60;7.13;;;;;;;4.94;60.50;98982.69;5049381;28;20129;-78
2022/01/20 05:58:38;;;;;;;9.30;5.57;;;;;;;4.91;60.29;98982.91;5046262;28;20124;-78
2022/01/20 06:01:11;;;;;;;13.00;7.65;;;;;;;4.92;60.38;98995.06;5050950;28;20083;-77
2022/01/20 06:03:38;;;;;;;16.48;10.88;;;;;;;4.81;59.80;98997.56;5047103;28;20148;-79
2022/01/20 06:06:06;;;;;;;16.70;9.50;;;;;;;4.84;59.78;98998.19;5048919;28;20045;-76
2022/01/20 06:08:34;;;;;;;13.07;10.10;;;;;;;4.85;59.51;98993.81;5047156;28;20084;-76
2022/01/20 06:11:01;;;;;;;15.15;8.52;;;;;;;4.81;59.57;99002.78;5046882;28;20143;-78
2022/01/20 06:13:28;;;;;;;12.68;6.57;;;;;;;4.88;59.30;99004.91;5047341;28;20055;-80
2022/01/20 06:15:56;;;;;;;16.90;9.23;;;;;;;4.84;58.99;99008.63;5048577;28;20135;-80
2022/01/20 06:18:25;;;;;;;17.40;8.65;;;;;;;4.90;58.79;99008.25;5049619;28;20146;-75
2022/01/20 06:20:52;;;;;;;13.00;7.60;;;;;;;4.89;58.79;99013.56;5052669;28;20055;-80
2022/01/20 06:23:20;;;;;;;15.98;8.90;;;;;;;4.96;58.62;99012.19;5037148;28;20049;-80
2022/01/20 06:25:48;;;;;;;18.95;9.60;;;;;;;4.94;58.53;98998.41;5050372;28;20463;-81
2022/01/20 06:28:17;;;;;;;15.90;8.13;;;;;;;4.91;58.68;98993.38;5047260;28;20108;-78
2022/01/20 06:30:46;;;;;;;13.35;9.13;;;;;;;4.94;58.29;98986.13;5029483;28;20100;-77
2022/01/20 06:33:13;;;;;;;17.05;9.23;;;;;;;5.02;58.22;98998.69;5010135;28;20144;-79
2022/01/20 06:35:42;;;;;;;24.08;12.23;;;;;;;4.95;58.33;99021.84;5046524;28;20087;-75
2022/01/20 06:38:09;;;;;;;23.48;19.40;;;;;;;4.84;58.14;99033.97;5047284;28;20051;-76
2022/01/20 06:40:36;;;;;;;12.82;7.18;;;;;;;4.36;58.47;99022.34;5045942;28;20057;-73
2022/01/20 06:43:03;;;;;;;12.32;6.10;;;;;;;3.77;61.50;99016.63;5046836;28;20053;-72
2022/01/20 06:45:30;;;;;;;22.42;5.30;;;;;;;3.35;64.35;99015.78;5046386;28;20055;-73
2022/01/20 06:47:57;;;;;;;20.08;5.18;;;;;;;3.06;65.88;99014.06;5045879;28;20138;-72
2022/01/20 06:50:25;;;;;;;25.55;5.75;;;;;;;2.89;67.24;99042.13;5045848;28;20051;-76
2022/01/20 06:52:54;;;;;;;23.23;6.97;;;;;;;2.81;67.88;99034.72;5009414;28;20114;-78
2022/01/20 06:55:22;;;;;;;11.95;5.05;;;;;;;2.76;68.36;99024.59;5045754;28;20422;-77
2022/01/20 06:57:49;;;;;;;15.88;7.22;;;;;;;2.80;68.29;99022.63;5042333;28;20049;-73
2022/01/20 07:00:18;;;;;;;13.65;6.35;;;;;;;2.88;68.34;99015.16;5045039;28;20066;-75
2022/01/20 07:02:46;;;;;;;12.35;4.97;;;;;;;3.01;67.66;99012.69;5046361;28;20140;-79
2022/01/20 07:05:16;;;;;;;17.33;10.18;;;;;;;2.97;67.87;99012.03;5051027;28;20063;-78
2022/01/20 07:07:44;;;;;;;13.25;5.45;;;;;;;3.03;67.75;99016.03;5049408;28;20649;-76
2022/01/20 07:10:14;;;;;;;11.95;7.45;;;;;;;3.08;67.72;99018.34;5047789;28;20056;-79
2022/01/20 07:12:44;;;;;;;12.93;6.45;;;;;;;3.14;67.44;99023.19;5047701;28;20041;-78
2022/01/20 07:15:11;;;;;;;11.23;4.88;;;;;;;3.07;67.04;99020.13;5050180;28;20053;-78
2022/01/20 07:17:39;;;;;;;18.73;6.18;;;;;;;2.99;67.16;99019.75;5049577;28;20048;-75
2022/01/20 07:20:08;;;;;;;8.07;4.40;;;;;;;3.00;67.06;99017.03;5054515;28;20131;-78
2022/01/20 07:22:36;;;;;;;13.70;6.43;;;;;;;2.98;66.98;99008.47;5054147;28;20161;-80
2022/01/20 07:25:06;;;;;;;27.35;11.35;;;;;;;2.98;67.11;99013.69;5039616;28;20060;-79
2022/01/20 07:27:34;;;;;;;31.25;17.90;;;;;;;2.99;67.06;99004.09;5056892;28;20051;-77
2022/01/20 07:30:01;;;;;;;36.72;30.48;;;;;;;2.95;67.26;99002.59;5062254;28;20515;-75
2022/01/20 07:32:32;;;;;;;29.67;19.17;;;;;;;3.01;67.01;99005.69;5063862;28;20033;-77
2022/01/20 07:35:02;;;;;;;21.52;14.55;;;;;;;3.06;66.76;98994.94;5037570;28;20045;-77
2022/01/20 07:37:29;;;;;;;15.65;8.68;;;;;;;3.11;66.72;98999.91;5049823;28;20102;-79
2022/01/20 07:39:56;;;;;;;19.67;7.80;;;;;;;3.18;66.68;98999.41;5050112;28;20071;-76
2022/01/20 07:42:24;;;;;;;15.68;7.00;;;;;;;3.23;66.39;99002.59;5033724;28;20087;-75
2022/01/20 07:44:56;;;;;;;19.80;6.28;;;;;;;3.35;66.23;98994.91;5057312;28;20080;-75
2022/01/20 07:47:23;;;;;;;14.50;5.43;;;;;;;3.43;66.06;98995.28;5016811;28;20099;-78
2022/01/20 07:49:50;;;;;;;12.75;5.18;;;;;;;3.49;65.63;98999.28;5050243;28;20052;-77
2022/01/20 07:52:17;;;;;;;15.55;5.45;;;;;;;3.42;65.49;98997.06;5045866;28;20041;-77
2022/01/20 07:54:45;;;;;;;4.80;2.20;;;;;;;3.49;64.77;99002.72;5029886;28;20107;-78
2022/01/20 07:57:14;;;;;;;12.57;7.07;;;;;;;3.48;64.55;99001.06;5047808;28;20049;-77
2022/01/20 07:59:41;;;;;;;9.45;4.10;;;;;;;3.56;64.42;98997.94;5048025;28;20675;-77
2022/01/20 08:02:11;;;;;;;10.18;5.68;;;;;;;3.55;63.10;98993.69;5050648;28;20140;-76
2022/01/20 08:04:39;;;;;;;10.07;4.32;;;;;;;3.60;61.71;98989.84;5049898;28;20059;-80
2022/01/20 08:07:06;;;;;;;10.13;4.10;;;;;;;3.61;60.62;98988.88;5048865;28;20107;-76
2022/01/20 08:09:34;;;;;;;7.28;5.40;;;;;;;3.62;60.23;98985.34;5049293;28;20045;-81
2022/01/20 08:12:02;;;;;;;10.60;3.75;;;;;;;3.68;60.35;98986.72;5049124;28;20045;-79
2022/01/20 08:14:29;;;;;;;6.38;3.03;;;;;;;3.90;59.75;98994.00;5049041;28;20049;-78
2022/01/20 08:16:56;;;;;;;6.35;3.20;;;;;;;4.11;59.83;98998.78;5050025;28;20080;-78
2022/01/20 08:19:27;;;;;;;10.10;5.03;;;;;;;4.12;58.32;98987.38;5055710;28;20124;-79
2022/01/20 08:22:07;;;;;;;6.53;2.88;;;;;;;4.21;58.56;98981.53;5050647;28;20069;-76
2022/01/20 08:24:36;;;;;;;6.13;2.75;;;;;;;4.27;58.44;98991.59;5050459;28;20063;-77
2022/01/20 08:27:03;;;;;;;8.15;4.18;;;;;;;4.34;58.14;98982.38;5048093;28;20053;-78
2022/01/20 08:29:32;;;;;;;14.25;3.78;;;;;;;4.30;55.99;98983.50;5030970;28;20044;-79
2022/01/20 08:32:00;;;;;;;8.48;2.40;;;;;;;4.40;56.49;98975.91;5056602;28;20064;-76
2022/01/20 08:34:30;;;;;;;11.57;4.63;;;;;;;4.46;55.85;98998.19;5016817;28;20045;-78
2022/01/20 08:37:02;;;;;;;22.58;4.82;;;;;;;4.10;55.00;99010.97;5027503;28;20044;-82
2022/01/20 08:39:43;;;;;;;40.70;5.20;;;;;;;3.50;59.89;99029.66;5045987;28;20060;-73
2022/01/20 08:42:10;;;;;;;15.85;5.75;;;;;;;3.07;62.78;99054.03;5046086;28;20605;-73
2022/01/20 08:44:38;;;;;;;293.05;31.02;;;;;;;2.22;66.64;99039.94;5045674;28;20073;-72
2022/01/20 08:47:14;;;;;;;9.23;4.40;;;;;;;2.09;68.55;99025.00;5046800;28;20088;-78
2022/01/20 08:49:45;;;;;;;5.22;2.28;;;;;;;2.13;68.36;99017.88;5049127;28;20049;-81
2022/01/20 08:52:13;;;;;;;7.63;2.03;;;;;;;2.07;68.42;98995.63;5054833;28;20136;-78
2022/01/20 08:54:40;;;;;;;6.95;2.60;;;;;;;1.99;69.52;99007.41;5052741;28;20132;-80
2022/01/20 08:57:07;;;;;;;5.93;2.70;;;;;;;1.98;69.44;98993.56;5042554;28;20072;-77
2022/01/20 08:59:37;;;;;;;3.08;1.83;;;;;;;2.07;68.55;98998.22;5045061;28;20136;-78
2022/01/20 09:02:04;;;;;;;8.00;3.63;;;;;;;2.19;68.56;99008.84;5057876;28;20048;-74
2022/01/20 09:04:32;;;;;;;12.15;5.18;;;;;;;2.32;67.78;98998.56;5046857;28;20596;-81
2022/01/20 09:07:01;;;;;;;12.70;5.38;;;;;;;2.34;66.77;98994.94;5047142;28;20163;-79
2022/01/20 09:09:28;;;;;;;11.30;4.40;;;;;;;2.32;64.26;98996.78;5044091;28;20497;-73
2022/01/20 09:12:15;;;;;;;6.55;3.50;;;;;;;2.59;65.62;98983.03;5043930;28;20137;-75
2022/01/20 09:17:28;;;;;;;5.72;2.45;;;;;;;2.51;59.02;98991.31;5043651;28;20555;-72
2022/01/20 09:19:56;;;;;;;5.03;3.42;;;;;;;2.75;60.09;98994.22;5042964;28;20134;-74
2022/01/20 09:22:26;;;;;;;15.82;4.32;;;;;;;2.90;59.17;98989.88;5043961;28;20045;-75
2022/01/20 09:24:53;;;;;;;15.07;4.10;;;;;;;2.70;54.89;98985.00;5043755;28;20059;-76
2022/01/20 09:27:23;;;;;;;11.48;4.35;;;;;;;2.85;56.66;99002.34;5042853;28;20071;-77
2022/01/20 09:29:50;;;;;;;5.75;3.08;;;;;;;2.73;56.44;98988.25;5049496;28;20044;-76
2022/01/20 09:32:19;;;;;;;5.38;2.80;;;;;;;2.90;57.10;98995.09;5046973;28;20346;-73
2022/01/20 09:34:48;;;;;;;12.30;4.05;;;;;;;3.03;55.38;98979.50;5045244;28;20045;-73
2022/01/20 09:37:16;;;;;;;3.00;1.48;;;;;;;3.14;55.00;98969.25;5047213;28;20049;-81
2022/01/20 09:39:46;;;;;;;6.22;3.28;;;;;;;3.06;54.49;98961.91;5031075;28;20110;-79
2022/01/20 09:42:17;;;;;;;3.75;1.92;;;;;;;3.09;54.67;98966.06;5045525;28;20060;-77
2022/01/20 09:44:45;;;;;;;5.07;2.10;;;;;;;3.24;55.06;98970.34;5044061;28;20485;-76
2022/01/20 09:47:13;;;;;;;14.07;4.68;;;;;;;3.19;53.12;98959.34;5044017;28;20052;-72
2022/01/20 09:49:40;;;;;;;7.88;2.78;;;;;;;3.31;53.84;98968.16;5043808;28;20048;-78
2022/01/20 09:52:09;;;;;;;6.30;3.17;;;;;;;3.43;54.10;98962.19;5045073;28;20131;-77
2022/01/20 09:54:36;;;;;;;11.63;4.28;;;;;;;3.52;54.78;98978.19;5045096;28;20045;-76
2022/01/20 09:57:06;;;;;;;19.20;6.40;;;;;;;3.52;54.35;98973.81;5043274;28;20049;-77
2022/01/20 09:59:33;;;;;;;12.77;4.80;;;;;;;3.60;54.37;98968.09;5048137;28;20102;-82
2022/01/20 10:02:00;;;;;;;14.10;4.43;;;;;;;3.69;55.07;98977.09;5046015;28;20053;-80
2022/01/20 10:04:32;;;;;;;15.65;5.30;;;;;;;3.74;55.13;98972.44;5049500;28;20077;-79
2022/01/20 10:07:01;;;;;;;17.55;5.10;;;;;;;3.75;54.26;98976.72;5048150;28;20110;-78
2022/01/20 10:09:34;;;;;;;6.28;3.25;;;;;;;3.73;52.47;98968.16;5045717;28;20432;-80
2022/01/20 10:12:01;;;;;;;13.10;5.20;;;;;;;3.82;52.45;98962.34;5011310;28;20041;-78
2022/01/20 10:14:39;;;;;;;13.60;5.80;;;;;;;3.84;51.99;98965.69;5023279;28;20072;-79
2022/01/20 10:17:16;;;;;;;12.88;5.13;;;;;;;3.87;51.41;98954.19;5024785;28;20640;-79
2022/01/20 10:19:44;;;;;;;7.47;3.92;;;;;;;3.90;50.66;98954.81;5008849;28;20081;-78
2022/01/20 10:22:12;;;;;;;8.98;3.22;;;;;;;3.79;48.92;98944.25;5023429;28;20161;-74
2022/01/20 10:24:39;;;;;;;10.35;4.78;;;;;;;3.71;49.21;98938.66;5024744;28;20049;-77
2022/01/20 10:27:10;;;;;;;5.60;2.33;;;;;;;3.68;48.81;98944.94;5023117;28;20046;-77
2022/01/20 10:29:39;;;;;;;10.82;3.35;;;;;;;3.45;47.92;98930.75;5024505;28;20482;-73
2022/01/20 10:32:07;;;;;;;6.50;3.42;;;;;;;3.55;48.86;98939.69;5024311;28;20109;-76
2022/01/20 10:34:37;;;;;;;8.45;3.22;;;;;;;3.43;47.96;98935.25;5004960;28;20109;-77
2022/01/20 10:37:07;;;;;;;8.07;3.72;;;;;;;3.70;48.43;98948.28;5025235;28;20675;-75
2022/01/20 10:39:37;;;;;;;8.35;2.95;;;;;;;3.73;47.51;98919.38;5030897;28;20050;-74
2022/01/20 10:42:07;;;;;;;16.50;6.55;;;;;;;3.59;47.83;98951.59;5027196;28;20046;-74
2022/01/20 10:44:47;;;;;;;8.23;4.13;;;;;;;3.25;48.37;98930.25;5009378;28;20133;-72
2022/01/20 10:47:16;;;;;;;12.27;4.70;;;;;;;2.95;49.17;98929.59;5026257;28;20055;-75
2022/01/20 10:49:44;;;;;;;10.48;4.32;;;;;;;3.05;49.46;98925.47;5017216;28;20046;-76
2022/01/20 10:52:14;;;;;;;10.07;3.25;;;;;;;3.25;49.42;98937.25;5007636;28;20050;-78
2022/01/20 10:54:44;;;;;;;8.32;3.42;;;;;;;3.53;49.24;98936.34;5007302;28;20085;-77
2022/01/20 10:57:15;;;;;;;10.73;3.75;;;;;;;3.92;48.43;98911.13;5008741;28;20057;-76
2022/01/20 10:59:52;;;;;;;8.93;3.65;;;;;;;3.50;48.71;98917.44;5009354;28;20103;-80
2022/01/20 11:02:21;;;;;;;8.13;4.80;;;;;;;3.34;49.38;98928.00;5005651;28;20129;-72
2022/01/20 11:04:50;;;;;;;9.18;4.18;;;;;;;3.14;50.58;98924.88;5011298;28;20590;-77
2022/01/20 11:07:16;;;;;;;9.88;4.53;;;;;;;2.97;50.90;98917.28;5009526;28;20152;-75
2022/01/20 11:09:46;;;;;;;11.73;5.38;;;;;;;2.80;50.81;98911.34;5009292;28;20552;-78
2022/01/20 11:12:15;;;;;;;8.63;3.90;;;;;;;2.75;51.18;98946.47;4990657;28;20517;-73
2022/01/20 11:14:44;;;;;;;9.80;4.18;;;;;;;2.66;51.17;98938.25;5007320;28;20145;-77
2022/01/20 11:17:20;;;;;;;6.53;4.22;;;;;;;2.60;51.11;98940.41;5006012;28;20123;-76
2022/01/20 11:19:48;;;;;;;7.65;4.38;;;;;;;2.78;51.45;98939.28;5005682;28;20620;-73
2022/01/20 11:22:18;;;;;;;21.10;5.47;;;;;;;2.69;50.51;98929.44;5009485;28;20049;-75
2022/01/20 11:24:45;;;;;;;6.35;3.33;;;;;;;2.68;51.03;98939.03;5010025;28;20156;-73
2022/01/20 11:27:14;;;;;;;8.85;4.38;;;;;;;2.58;50.95;98937.06;5006402;28;20670;-77
2022/01/20 11:29:44;;;;;;;10.00;4.35;;;;;;;2.76;50.85;98951.59;5006398;28;20054;-70
2022/01/20 11:32:21;;;;;;;8.27;5.03;;;;;;;2.82;50.16;98947.75;5005535;28;20046;-70
2022/01/20 11:34:59;;;;;;;11.52;3.85;;;;;;;2.86;49.99;98957.06;5005835;28;20493;-74
2022/01/20 11:37:27;;;;;;;5.68;3.47;;;;;;;2.92;49.50;98968.88;5005723;28;20054;-76
2022/01/20 11:40:07;;;;;;;4.55;2.42;;;;;;;3.04;49.06;98966.38;5006270;28;20042;-77
2022/01/20 11:42:34;;;;;;;8.90;3.50;;;;;;;3.09;47.40;98962.63;5007030;28;20157;-74
2022/01/20 11:45:03;;;;;;;8.80;5.53;;;;;;;2.96;48.28;98980.81;5007179;28;20108;-77
2022/01/20 11:47:34;;;;;;;11.73;4.22;;;;;;;2.98;48.24;98976.34;5009150;28;20060;-72
2022/01/20 11:50:01;;;;;;;7.53;4.15;;;;;;;2.85;47.28;98977.09;5004790;28;20056;-82
2022/01/20 11:52:29;;;;;;;9.93;4.30;;;;;;;2.83;47.47;98960.72;5008528;28;20125;-72
2022/01/20 11:54:58;;;;;;;7.10;3.78;;;;;;;2.67;47.31;98952.97;4991567;28;20133;-74
2022/01/20 11:57:30;;;;;;;6.95;3.85;;;;;;;2.75;47.60;98959.50;5006784;28;20133;-80
2022/01/20 12:00:00;;;;;;;9.35;3.95;;;;;;;2.74;47.42;98953.44;4990150;28;20053;-74
2022/01/20 12:02:32;;;;;;;7.40;3.50;;;;;;;2.63;47.80;98940.25;4989749;28;20074;-78
2022/01/20 12:05:02;;;;;;;10.25;4.05;;;;;;;2.67;48.11;98965.19;4989596;28;20141;-75
2022/01/20 12:07:34;;;;;;;13.10;4.65;;;;;;;2.77;48.14;98968.88;5006161;28;20057;-80
2022/01/20 12:10:10;;;;;;;8.88;2.97;;;;;;;2.87;47.68;98971.78;4990167;28;20060;-79
2022/01/20 12:12:42;;;;;;;6.50;3.85;;;;;;;2.91;47.54;98968.06;4994387;28;20089;-76
2022/01/20 12:15:11;;;;;;;7.32;4.40;;;;;;;2.82;47.34;98958.19;5008570;28;20072;-71
2022/01/20 12:17:41;;;;;;;7.13;3.35;;;;;;;2.62;47.52;98980.25;5006658;28;20046;-74
2022/01/20 12:20:12;;;;;;;7.47;3.15;;;;;;;2.65;47.36;98986.13;5005782;28;20112;-77
2022/01/20 12:22:43;;;;;;;9.35;2.63;;;;;;;2.65;47.43;98980.09;5004938;28;20046;-71
2022/01/20 12:25:18;;;;;;;5.68;2.83;;;;;;;2.61;47.20;98968.16;5006929;28;20140;-79